Time;durP1;ratioP1;P1;durP2;ratioP2;P2;SDS_P1;SDS_P2;PMS_P1;PMS_P2;Temp;Humidity;BMP_temperature;BMP_pressure;BME280_temperature;BME280_humidity;BME280_pressure;Samples;Min_cycle;Max_cycle;Signal;HPM_P1;HPM_P2
2024/01/13 00:03:17;;;;;;;41.63;17.65;;;;;;;;;;10528256;28;20019;-75
2024/01/13 00:08:17;;;;;;;48.10;17.50;;;;;;;;;;10528857;28;20217;-75
2024/01/13 00:13:17;;;;;;;42.08;15.60;;;;;;;;;;10528746;28;20015;-75
2024/01/13 00:18:19;;;;;;;39.97;18.75;;;;;;;;;;10529939;28;20030;-74
2024/01/13 00:23:19;;;;;;;37.25;17.75;;;;;;;;;;10535037;28;20020;-75
2024/01/13 00:28:19;;;;;;;38.22;16.50;;;;;;;;;;10550122;28;20015;-74
2024/01/13 00:33:20;;;;;;;39.55;16.60;;;;;;;;;;10554925;28;20587;-74
2024/01/13 00:38:20;;;;;;;34.38;13.60;;;;;;;;;;10547984;28;20302;-73
2024/01/13 00:43:20;;;;;;;41.58;17.83;;;;;;;;;;10505224;28;20044;-73
2024/01/13 00:48:20;;;;;;;37.47;16.70;;;;;;;;;;10506587;28;20016;-74
2024/01/13 00:53:21;;;;;;;30.70;13.40;;;;;;;;;;10505834;28;20215;-73
2024/01/13 00:58:21;;;;;;;34.08;15.05;;;;;;;;;;10488679;28;20017;-74
2024/01/13 01:03:21;;;;;;;36.47;14.77;;;;;;;;;;10505853;28;20024;-74
2024/01/13 01:08:21;;;;;;;33.25;18.10;;;;;;;;;;10505424;28;20322;-74
2024/01/13 01:13:21;;;;;;;36.60;17.17;;;;;;;;;;10501631;28;20024;-73
2024/01/13 01:18:22;;;;;;;40.50;15.43;;;;;;;;;;10505085;28;20024;-74
2024/01/13 01:23:24;;;;;;;32.55;14.85;;;;;;;;;;10504845;28;20426;-73
2024/01/13 01:28:24;;;;;;;45.22;18.52;;;;;;;;;;10504641;28;20017;-73
2024/01/13 01:33:24;;;;;;;43.33;17.30;;;;;;;;;;10503950;28;20307;-73
2024/01/13 01:38:25;;;;;;;40.97;17.80;;;;;;;;;;10504491;28;20035;-74
2024/01/13 01:43:25;;;;;;;38.33;15.85;;;;;;;;;;10537509;28;20044;-74
2024/01/13 01:48:32;;;;;;;45.03;18.23;;;;;;;;;;10545969;28;20023;-74
2024/01/13 01:53:34;;;;;;;42.30;18.55;;;;;;;;;;10527513;28;20020;-75
2024/01/13 01:58:35;;;;;;;43.50;18.67;;;;;;;;;;10545258;28;20058;-74
2024/01/13 02:03:36;;;;;;;37.17;17.35;;;;;;;;;;10527433;28;20023;-74
2024/01/13 02:08:37;;;;;;;33.80;17.13;;;;;;;;;;10544778;28;20209;-75
2024/01/13 02:13:37;;;;;;;37.05;16.67;;;;;;;;;;10526526;28;20091;-74
2024/01/13 02:18:38;;;;;;;41.40;15.90;;;;;;;;;;10526713;28;20020;-74
2024/01/13 02:23:38;;;;;;;38.65;16.17;;;;;;;;;;10544122;28;20019;-73
2024/01/13 02:28:39;;;;;;;35.38;12.77;;;;;;;;;;10543932;28;20150;-74
2024/01/13 02:33:39;;;;;;;39.85;18.30;;;;;;;;;;10544213;28;20024;-74
2024/01/13 02:38:39;;;;;;;43.80;20.17;;;;;;;;;;10543603;28;20023;-74
2024/01/13 02:43:40;;;;;;;52.30;20.77;;;;;;;;;;10542582;28;20036;-74
2024/01/13 02:48:41;;;;;;;40.72;17.45;;;;;;;;;;10543393;28;20038;-74
2024/01/13 02:53:41;;;;;;;45.95;18.88;;;;;;;;;;10525164;28;20031;-73
2024/01/13 02:58:42;;;;;;;39.95;18.98;;;;;;;;;;10524780;28;20058;-74
2024/01/13 03:03:42;;;;;;;33.77;17.70;;;;;;;;;;10543581;28;20023;-74
2024/01/13 03:08:44;;;;;;;44.28;19.38;;;;;;;;;;10542699;28;20020;-74
2024/01/13 03:13:44;;;;;;;45.05;19.75;;;;;;;;;;10542259;28;20035;-74
2024/01/13 03:18:44;;;;;;;45.70;18.50;;;;;;;;;;10542649;28;20023;-74
2024/01/13 03:23:45;;;;;;;33.67;13.05;;;;;;;;;;10542185;28;20070;-74
2024/01/13 03:28:45;;;;;;;30.60;14.98;;;;;;;;;;10541697;28;20020;-74
2024/01/13 03:33:46;;;;;;;47.33;19.13;;;;;;;;;;10541959;28;20067;-73
2024/01/13 03:38:46;;;;;;;51.30;21.05;;;;;;;;;;10541752;28;20032;-73
2024/01/13 03:43:46;;;;;;;52.65;21.30;;;;;;;;;;10523139;28;20044;-74
2024/01/13 03:48:46;;;;;;;43.45;20.20;;;;;;;;;;10541867;28;20055;-73
2024/01/13 03:53:47;;;;;;;37.10;17.10;;;;;;;;;;10523518;28;20027;-74
2024/01/13 03:58:47;;;;;;;46.05;19.75;;;;;;;;;;10541387;28;20053;-73
2024/01/13 04:03:47;;;;;;;43.17;21.63;;;;;;;;;;10541083;28;20363;-75
2024/01/13 04:08:47;;;;;;;36.30;19.02;;;;;;;;;;10541519;28;20367;-73
2024/01/13 04:13:47;;;;;;;46.65;21.38;;;;;;;;;;10531480;28;20024;-74
2024/01/13 04:18:48;;;;;;;41.53;19.95;;;;;;;;;;10521838;28;20229;-74
2024/01/13 04:23:48;;;;;;;47.42;23.23;;;;;;;;;;10518436;28;20310;-74
2024/01/13 04:28:48;;;;;;;46.30;23.23;;;;;;;;;;10540147;28;20024;-75
2024/01/13 04:33:49;;;;;;;38.03;18.65;;;;;;;;;;10520918;28;20245;-75
2024/01/13 04:38:50;;;;;;;52.70;21.30;;;;;;;;;;10540292;28;20031;-74
2024/01/13 04:43:50;;;;;;;51.17;22.10;;;;;;;;;;10520721;28;20217;-74
2024/01/13 04:48:50;;;;;;;33.35;16.20;;;;;;;;;;10539707;28;20032;-74
2024/01/13 04:53:50;;;;;;;33.65;15.65;;;;;;;;;;10538574;28;20059;-74
2024/01/13 04:58:50;;;;;;;32.38;17.00;;;;;;;;;;10539741;28;20098;-73
2024/01/13 05:03:51;;;;;;;36.80;17.23;;;;;;;;;;10539991;28;20016;-74
2024/01/13 05:08:51;;;;;;;38.58;16.70;;;;;;;;;;10528675;28;20012;-74
2024/01/13 05:13:51;;;;;;;32.25;16.40;;;;;;;;;;10548442;28;20020;-74
2024/01/13 05:18:51;;;;;;;34.20;16.80;;;;;;;;;;10547302;28;20090;-74
2024/01/13 05:23:52;;;;;;;643.20;471.80;;;;;;;;;;10547028;28;20226;-74
2024/01/13 05:28:52;;;;;;;468.38;343.08;;;;;;;;;;10528576;28;20025;-74
2024/01/13 05:33:52;;;;;;;361.60;202.15;;;;;;;;;;10546016;28;20087;-73
2024/01/13 05:38:52;;;;;;;34.40;21.13;;;;;;;;;;10545578;28;20380;-73
2024/01/13 05:43:52;;;;;;;35.17;16.88;;;;;;;;;;10527406;28;20103;-73
2024/01/13 05:48:53;;;;;;;43.10;23.45;;;;;;;;;;10525246;28;20016;-74
2024/01/13 05:53:53;;;;;;;28.85;15.88;;;;;;;;;;10545647;28;20027;-74
2024/01/13 05:58:53;;;;;;;39.22;19.35;;;;;;;;;;10544898;28;20328;-74
2024/01/13 06:03:53;;;;;;;40.83;16.35;;;;;;;;;;10544329;28;20016;-75
2024/01/13 06:08:54;;;;;;;39.03;18.40;;;;;;;;;;10527036;28;20027;-72
2024/01/13 06:13:55;;;;;;;38.33;18.92;;;;;;;;;;10544853;28;20078;-72
2024/01/13 06:18:56;;;;;;;35.90;18.75;;;;;;;;;;10544239;28;20240;-73
2024/01/13 06:23:58;;;;;;;37.30;19.80;;;;;;;;;;10543882;28;20054;-73
2024/01/13 06:28:59;;;;;;;30.42;17.52;;;;;;;;;;10543100;28;20259;-73
2024/01/13 06:33:59;;;;;;;34.60;16.88;;;;;;;;;;10518004;28;20038;-72
2024/01/13 06:38:59;;;;;;;28.73;13.67;;;;;;;;;;10515100;28;20023;-73
2024/01/13 06:44:00;;;;;;;37.80;18.55;;;;;;;;;;10541144;28;20290;-72
2024/01/13 06:49:00;;;;;;;33.55;16.65;;;;;;;;;;10541555;28;20065;-72
2024/01/13 06:54:01;;;;;;;27.25;12.93;;;;;;;;;;10537286;28;20210;-72
2024/01/13 06:59:01;;;;;;;33.28;15.23;;;;;;;;;;10538477;28;20336;-72
2024/01/13 07:04:01;;;;;;;36.65;15.45;;;;;;;;;;10523619;28;20381;-72
2024/01/13 07:09:02;;;;;;;33.05;14.90;;;;;;;;;;10541717;28;20228;-74
2024/01/13 07:14:02;;;;;;;34.92;15.02;;;;;;;;;;10541551;28;20084;-73
2024/01/13 07:19:02;;;;;;;32.42;16.08;;;;;;;;;;10541029;28;20020;-73
2024/01/13 07:24:04;;;;;;;35.67;15.77;;;;;;;;;;10539355;28;20310;-74
2024/01/13 07:29:04;;;;;;;35.35;16.48;;;;;;;;;;10542638;28;20019;-75
2024/01/13 07:34:04;;;;;;;35.58;15.02;;;;;;;;;;10522946;28;20022;-75
2024/01/13 07:39:09;;;;;;;37.17;14.70;;;;;;;;;;10539751;28;20027;-74
2024/01/13 07:44:09;;;;;;;37.55;16.40;;;;;;;;;;10541096;28;20067;-75
2024/01/13 07:49:10;;;;;;;45.42;18.25;;;;;;;;;;10540215;28;20079;-74
2024/01/13 07:54:10;;;;;;;48.35;17.58;;;;;;;;;;10540690;28;20222;-75
2024/01/13 07:59:10;;;;;;;38.10;16.23;;;;;;;;;;10540232;28;20341;-74
2024/01/13 08:04:12;;;;;;;46.60;15.43;;;;;;;;;;10539737;28;20369;-74
2024/01/13 08:09:12;;;;;;;38.58;16.98;;;;;;;;;;10539932;28;20030;-74
2024/01/13 08:14:13;;;;;;;42.80;16.50;;;;;;;;;;10540015;28;20024;-73
2024/01/13 08:19:14;;;;;;;35.85;16.00;;;;;;;;;;10539575;28;20020;-74
2024/01/13 08:24:14;;;;;;;33.97;16.42;;;;;;;;;;10521914;28;20083;-75
2024/01/13 08:29:14;;;;;;;29.70;13.82;;;;;;;;;;10540080;28;20027;-74
2024/01/13 08:34:14;;;;;;;27.02;12.70;;;;;;;;;;10521477;28;20508;-75
2024/01/13 08:39:15;;;;;;;28.07;11.10;;;;;;;;;;10539608;28;20191;-73
2024/01/13 08:44:18;;;;;;;33.15;11.63;;;;;;;;;;10528138;28;20104;-74
2024/01/13 08:49:18;;;;;;;21.50;10.68;;;;;;;;;;10547982;28;20310;-74
2024/01/13 08:54:18;;;;;;;28.40;12.27;;;;;;;;;;10547804;28;20087;-74
2024/01/13 08:59:19;;;;;;;20.53;10.53;;;;;;;;;;10547371;28;20329;-74
2024/01/13 09:04:19;;;;;;;21.40;9.70;;;;;;;;;;10547363;28;20031;-73
2024/01/13 09:09:19;;;;;;;21.58;10.55;;;;;;;;;;10550170;28;20049;-74
2024/01/13 09:14:20;;;;;;;17.75;9.20;;;;;;;;;;10528347;28;20054;-75
2024/01/13 09:19:20;;;;;;;21.40;10.15;;;;;;;;;;10546319;28;20054;-75
2024/01/13 09:24:20;;;;;;;25.70;10.55;;;;;;;;;;10545343;28;20023;-74
2024/01/13 09:29:20;;;;;;;20.30;9.82;;;;;;;;;;10527261;28;20031;-74
2024/01/13 09:34:21;;;;;;;23.38;10.57;;;;;;;;;;10545538;28;20024;-75
2024/01/13 09:39:21;;;;;;;28.20;10.52;;;;;;;;;;10545251;28;20028;-74
2024/01/13 09:44:29;;;;;;;25.63;11.02;;;;;;;;;;10528660;28;20040;-75
2024/01/13 09:49:30;;;;;;;20.88;9.25;;;;;;;;;;10526728;28;20349;-73
2024/01/13 09:54:30;;;;;;;18.73;9.50;;;;;;;;;;10543967;28;20020;-74
2024/01/13 09:59:31;;;;;;;26.88;10.65;;;;;;;;;;10544494;28;20020;-74
2024/01/13 10:04:31;;;;;;;19.37;10.00;;;;;;;;;;10544126;28;20528;-73
2024/01/13 10:09:32;;;;;;;19.45;10.27;;;;;;;;;;10523840;28;20289;-73
2024/01/13 10:14:33;;;;;;;21.67;9.88;;;;;;;;;;10543511;28;20309;-73
2024/01/13 10:19:37;;;;;;;20.90;9.75;;;;;;;;;;10525071;28;20536;-73
2024/01/13 10:24:38;;;;;;;16.92;9.15;;;;;;;;;;10543265;28;20016;-72
2024/01/13 10:29:40;;;;;;;22.17;7.95;;;;;;;;;;10539675;28;20399;-74
2024/01/13 10:34:47;;;;;;;16.85;8.55;;;;;;;;;;10539604;28;20035;-74
2024/01/13 10:39:48;;;;;;;16.27;9.00;;;;;;;;;;10539103;28;20067;-75
2024/01/13 10:44:56;;;;;;;15.23;8.67;;;;;;;;;;10524579;28;20249;-75
2024/01/13 10:49:57;;;;;;;15.75;8.10;;;;;;;;;;10542639;28;20019;-74
2024/01/13 10:55:01;;;;;;;16.35;8.65;;;;;;;;;;10523930;28;20024;-74
2024/01/13 11:00:01;;;;;;;13.95;8.13;;;;;;;;;;10542291;28;20027;-75
2024/01/13 11:05:02;;;;;;;20.60;9.27;;;;;;;;;;10541038;28;20380;-74
2024/01/13 11:10:04;;;;;;;19.85;10.32;;;;;;;;;;10535086;28;20190;-74
2024/01/13 11:15:17;;;;;;;15.23;8.75;;;;;;;;;;10541394;28;20352;-75
2024/01/13 11:20:18;;;;;;;;;;;;;;;;;;10523567;28;20282;-76
2024/01/13 11:25:18;;;;;;;;;;;;;;;;;;10523979;28;19970;-75
2024/01/13 11:30:18;;;;;;;;;;;;;;;;;;10536322;28;19923;-76
2024/01/13 11:35:19;;;;;;;578.72;529.45;;;;;;;;;;10517615;28;20732;-74
2024/01/13 11:40:20;;;;;;;219.57;161.10;;;;;;;;;;10514088;28;20032;-75
2024/01/13 11:45:32;;;;;;;20.60;9.15;;;;;;;;;;10521755;28;20403;-74
2024/01/13 11:50:35;;;;;;;22.33;10.85;;;;;;;;;;10527268;28;20020;-74
2024/01/13 11:55:36;;;;;;;25.02;11.98;;;;;;;;;;10519590;28;20538;-75
2024/01/13 12:00:36;;;;;;;20.00;10.77;;;;;;;;;;10538728;28;20036;-75
2024/01/13 12:05:36;;;;;;;23.95;11.68;;;;;;;;;;10528478;28;20262;-76
2024/01/13 12:10:43;;;;;;;24.55;12.15;;;;;;;;;;10539742;28;20191;-76
2024/01/13 12:15:47;;;;;;;25.67;12.65;;;;;;;;;;10544748;28;20028;-75
2024/01/13 12:20:48;;;;;;;29.65;13.10;;;;;;;;;;10548289;28;20028;-76
2024/01/13 12:25:48;;;;;;;23.23;10.68;;;;;;;;;;10547764;28;20008;-75
2024/01/13 12:30:52;;;;;;;22.33;10.95;;;;;;;;;;10548087;28;20626;-75
2024/01/13 12:36:02;;;;;;;23.48;12.48;;;;;;;;;;10529699;28;20031;-74
2024/01/13 12:41:04;;;;;;;23.58;11.93;;;;;;;;;;10546149;28;20050;-76
2024/01/13 12:46:05;;;;;;;26.08;13.02;;;;;;;;;;10548519;28;20023;-75
2024/01/13 12:51:09;;;;;;;25.08;11.95;;;;;;;;;;10530207;28;20031;-75
2024/01/13 12:56:09;;;;;;;26.92;12.77;;;;;;;;;;10511640;28;20031;-75
2024/01/13 13:01:10;;;;;;;22.48;11.75;;;;;;;;;;10542977;28;20338;-75
2024/01/13 13:06:10;;;;;;;24.88;13.23;;;;;;;;;;10529385;28;20026;-76
2024/01/13 13:11:12;;;;;;;24.65;12.95;;;;;;;;;;10547392;28;20019;-76
2024/01/13 13:16:12;;;;;;;18.75;11.73;;;;;;;;;;10546131;28;20075;-75
2024/01/13 13:21:12;;;;;;;24.40;13.25;;;;;;;;;;10526058;28;20028;-75
2024/01/13 13:26:12;;;;;;;30.38;15.38;;;;;;;;;;10544168;28;20016;-76
2024/01/13 13:31:13;;;;;;;30.35;13.13;;;;;;;;;;10524095;28;20039;-76
2024/01/13 13:36:13;;;;;;;23.30;10.27;;;;;;;;;;10542966;28;20200;-76
2024/01/13 13:41:13;;;;;;;21.45;11.85;;;;;;;;;;10542698;28;20103;-75
2024/01/13 13:46:14;;;;;;;23.33;12.35;;;;;;;;;;10526621;28;20028;-77
2024/01/13 13:51:17;;;;;;;25.92;13.57;;;;;;;;;;10511208;28;20016;-79
2024/01/13 13:56:17;;;;;;;28.42;12.35;;;;;;;;;;10513093;28;20024;-78
2024/01/13 14:01:18;;;;;;;28.60;15.30;;;;;;;;;;10514533;28;20240;-78
2024/01/13 14:06:18;;;;;;;26.60;12.07;;;;;;;;;;10514520;28;20054;-77
2024/01/13 14:11:18;;;;;;;28.58;13.65;;;;;;;;;;10533702;28;20043;-74
2024/01/13 14:16:20;;;;;;;29.80;13.38;;;;;;;;;;10531527;28;20080;-74
2024/01/13 14:21:20;;;;;;;29.95;14.95;;;;;;;;;;10534414;28;20082;-74
2024/01/13 14:26:20;;;;;;;31.07;16.40;;;;;;;;;;10513996;28;20091;-75
2024/01/13 14:31:21;;;;;;;33.30;14.85;;;;;;;;;;10513235;28;20020;-75
2024/01/13 14:36:21;;;;;;;29.02;15.15;;;;;;;;;;10513703;28;20059;-86
2024/01/13 14:41:21;;;;;;;29.13;12.97;;;;;;;;;;10517506;28;20303;-82
2024/01/13 14:46:22;;;;;;;30.00;16.00;;;;;;;;;;10511120;28;20028;-72
2024/01/13 14:51:22;;;;;;;16.20;10.20;;;;;;;;;;10530699;28;20358;-71
2024/01/13 14:56:22;;;;;;;25.30;13.15;;;;;;;;;;10513042;28;20354;-74
2024/01/13 15:01:22;;;;;;;24.92;12.70;;;;;;;;;;10529602;28;20024;-71
2024/01/13 15:06:23;;;;;;;30.08;14.77;;;;;;;;;;10530249;28;20071;-72
2024/01/13 15:11:23;;;;;;;27.20;14.57;;;;;;;;;;10531317;28;20030;-75
2024/01/13 15:16:23;;;;;;;25.83;13.27;;;;;;;;;;10511238;28;20051;-72
2024/01/13 15:21:24;;;;;;;30.53;14.47;;;;;;;;;;10507953;28;20310;-74
2024/01/13 15:26:24;;;;;;;31.20;17.02;;;;;;;;;;10526725;28;20028;-73
2024/01/13 15:31:25;;;;;;;35.72;17.60;;;;;;;;;;10529046;28;20024;-72
2024/01/13 15:36:25;;;;;;;34.95;17.48;;;;;;;;;;10510340;28;20016;-74
2024/01/13 15:41:26;;;;;;;40.42;34.22;;;;;;;;;;10509551;28;20344;-73
2024/01/13 15:46:26;;;;;;;38.15;17.05;;;;;;;;;;10527761;28;20042;-72
2024/01/13 15:51:26;;;;;;;31.00;15.60;;;;;;;;;;10526923;28;20059;-74
2024/01/13 15:56:26;;;;;;;32.92;16.40;;;;;;;;;;10528145;28;20073;-75
2024/01/13 16:01:27;;;;;;;42.30;21.90;;;;;;;;;;10529097;28;20020;-74
2024/01/13 16:06:27;;;;;;;36.77;22.80;;;;;;;;;;10528565;28;20273;-76
2024/01/13 16:11:27;;;;;;;38.60;19.73;;;;;;;;;;10510300;28;20020;-76
2024/01/13 16:16:28;;;;;;;41.75;22.10;;;;;;;;;;10527998;28;20233;-74
2024/01/13 16:21:28;;;;;;;37.80;17.60;;;;;;;;;;10510501;28;20027;-73
2024/01/13 16:26:29;;;;;;;36.75;19.88;;;;;;;;;;10530125;28;20020;-75
2024/01/13 16:31:29;;;;;;;37.23;17.30;;;;;;;;;;10528409;28;20020;-73
2024/01/13 16:36:29;;;;;;;35.35;18.67;;;;;;;;;;10528228;28;20341;-73
2024/01/13 16:41:30;;;;;;;33.85;18.95;;;;;;;;;;10525543;28;20346;-73
2024/01/13 16:46:30;;;;;;;32.97;15.83;;;;;;;;;;10509256;28;20043;-73
2024/01/13 16:51:30;;;;;;;30.58;16.08;;;;;;;;;;10527718;28;20549;-72
2024/01/13 16:56:30;;;;;;;46.72;21.95;;;;;;;;;;10507650;28;20440;-73
2024/01/13 17:01:31;;;;;;;;;;;;;;;;;;10510972;28;20051;-73
2024/01/13 17:06:32;;;;;;;608.85;200.50;;;;;;;;;;10534934;28;20032;-78
2024/01/13 17:11:32;;;;;;;643.28;545.72;;;;;;;;;;10518414;28;20059;-74
2024/01/13 17:16:32;;;;;;;482.90;435.02;;;;;;;;;;10517078;28;20020;-74
2024/01/13 17:21:32;;;;;;;679.40;302.38;;;;;;;;;;10534484;28;20046;-75
2024/01/13 17:26:33;;;;;;;;;;;;;;;;;;10534807;28;20020;-74
2024/01/13 17:31:33;;;;;;;778.75;618.65;;;;;;;;;;10533385;28;20232;-75
2024/01/13 17:36:33;;;;;;;27.63;15.88;;;;;;;;;;10515661;28;20252;-74
2024/01/13 17:41:33;;;;;;;36.05;17.92;;;;;;;;;;10514514;28;20050;-73
2024/01/13 17:46:34;;;;;;;753.90;424.80;;;;;;;;;;10533319;28;20032;-74
2024/01/13 17:51:34;;;;;;;338.00;295.75;;;;;;;;;;10533085;28;20251;-74
2024/01/13 17:56:35;;;;;;;;;;;;;;;;;;10514452;28;20102;-73
2024/01/13 18:01:36;;;;;;;726.97;535.60;;;;;;;;;;10504430;28;20123;-74
2024/01/13 18:06:37;;;;;;;716.53;538.67;;;;;;;;;;10515635;28;20197;-74
2024/01/13 18:11:41;;;;;;;713.47;481.07;;;;;;;;;;10532467;28;20016;-73
2024/01/13 18:16:41;;;;;;;228.75;213.80;;;;;;;;;;10528110;28;20705;-75
2024/01/13 18:21:43;;;;;;;236.25;185.82;;;;;;;;;;10532069;28;21308;-75
2024/01/13 18:26:43;;;;;;;343.05;86.90;;;;;;;;;;10531970;28;20202;-75
2024/01/13 18:31:43;;;;;;;571.00;411.55;;;;;;;;;;10531043;28;20020;-73
2024/01/13 18:36:43;;;;;;;560.65;504.98;;;;;;;;;;10531520;28;20061;-74
2024/01/13 18:41:45;;;;;;;37.40;17.25;;;;;;;;;;10532253;28;20082;-73
2024/01/13 18:46:45;;;;;;;580.45;466.73;;;;;;;;;;10511439;28;20130;-74
2024/01/13 18:51:45;;;;;;;196.90;179.93;;;;;;;;;;10512718;28;20038;-75
2024/01/13 18:56:46;;;;;;;555.85;340.10;;;;;;;;;;10530949;28;20262;-75
2024/01/13 19:01:47;;;;;;;561.47;141.57;;;;;;;;;;10528443;28;19912;-76
2024/01/13 19:06:47;;;;;;;30.60;22.00;;;;;;;;;;10530309;28;20063;-74
2024/01/13 19:11:48;;;;;;;41.60;18.70;;;;;;;;;;10529290;28;20047;-74
2024/01/13 19:16:48;;;;;;;;;;;;;;;;;;10530083;28;20047;-74
2024/01/13 19:21:53;;;;;;;;;;;;;;;;;;10528266;28;20413;-75
2024/01/13 19:26:53;;;;;;;658.30;198.90;;;;;;;;;;10527379;28;25103;-74
2024/01/13 19:31:54;;;;;;;34.47;18.47;;;;;;;;;;10528292;28;20024;-75
2024/01/13 19:36:54;;;;;;;40.85;22.13;;;;;;;;;;10511339;28;20240;-75
2024/01/13 19:41:54;;;;;;;38.53;21.80;;;;;;;;;;10508913;28;20043;-75
2024/01/13 19:46:55;;;;;;;48.35;22.27;;;;;;;;;;10528873;28;20062;-75
2024/01/13 19:51:56;;;;;;;46.47;22.63;;;;;;;;;;10528909;28;20040;-74
2024/01/13 19:56:56;;;;;;;46.20;23.38;;;;;;;;;;10528810;28;20090;-76
2024/01/13 20:01:57;;;;;;;50.38;24.55;;;;;;;;;;10527308;28;20023;-75
2024/01/13 20:06:57;;;;;;;47.28;23.50;;;;;;;;;;10528052;28;20020;-75
2024/01/13 20:11:57;;;;;;;44.90;24.27;;;;;;;;;;10526651;28;20210;-74
2024/01/13 20:16:58;;;;;;;53.35;28.08;;;;;;;;;;10520236;28;20024;-75
2024/01/13 20:21:58;;;;;;;55.45;28.88;;;;;;;;;;10526163;28;20326;-75
2024/01/13 20:26:58;;;;;;;638.60;452.60;;;;;;;;;;10507814;28;20023;-74
2024/01/13 20:31:59;;;;;;;566.72;506.60;;;;;;;;;;10527655;28;20320;-74
2024/01/13 20:36:59;;;;;;;779.80;550.00;;;;;;;;;;10533283;28;20464;-75
2024/01/13 20:42:00;;;;;;;660.90;342.80;;;;;;;;;;10535556;28;20040;-76
2024/01/13 20:47:00;;;;;;;425.90;58.15;;;;;;;;;;10516993;28;20607;-75
2024/01/13 20:52:00;;;;;;;487.27;62.70;;;;;;;;;;10536148;28;20020;-75
2024/01/13 20:57:01;;;;;;;677.22;167.65;;;;;;;;;;10530247;28;20203;-76
2024/01/13 21:02:01;;;;;;;694.75;132.23;;;;;;;;;;10534763;28;20016;-76
2024/01/13 21:07:03;;;;;;;750.40;253.15;;;;;;;;;;10535522;28;20062;-75
2024/01/13 21:12:04;;;;;;;753.80;424.35;;;;;;;;;;10516119;28;20043;-75
2024/01/13 21:17:04;;;;;;;758.80;313.85;;;;;;;;;;10529735;28;20022;-75
2024/01/13 21:22:06;;;;;;;743.03;319.95;;;;;;;;;;10535260;28;20046;-75
2024/01/13 21:27:06;;;;;;;734.28;383.88;;;;;;;;;;10516858;28;20114;-75
2024/01/13 21:32:06;;;;;;;758.22;256.23;;;;;;;;;;10516496;28;20019;-74
2024/01/13 21:37:07;;;;;;;735.53;346.40;;;;;;;;;;10534342;28;20020;-74
2024/01/13 21:42:07;;;;;;;590.25;372.98;;;;;;;;;;10515836;28;20051;-75
2024/01/13 21:47:08;;;;;;;738.58;413.42;;;;;;;;;;10532721;28;20008;-74
2024/01/13 21:52:08;;;;;;;698.17;385.60;;;;;;;;;;10515980;28;20333;-75
2024/01/13 21:57:09;;;;;;;707.15;345.02;;;;;;;;;;10533579;28;20024;-75
2024/01/13 22:02:10;;;;;;;643.72;443.77;;;;;;;;;;10536577;28;20020;-75
2024/01/13 22:07:11;;;;;;;764.08;343.58;;;;;;;;;;10533202;28;20016;-75
2024/01/13 22:12:12;;;;;;;729.83;349.05;;;;;;;;;;10515224;28;20446;-75
2024/01/13 22:17:17;;;;;;;693.00;442.70;;;;;;;;;;10512197;28;20310;-74
2024/01/13 22:22:18;;;;;;;376.38;345.35;;;;;;;;;;10512753;28;20016;-75
2024/01/13 22:27:18;;;;;;;662.42;448.20;;;;;;;;;;10531879;28;20023;-75
2024/01/13 22:32:19;;;;;;;702.08;439.17;;;;;;;;;;10531463;28;20012;-75
2024/01/13 22:37:19;;;;;;;688.60;392.15;;;;;;;;;;10531689;28;20822;-75
2024/01/13 22:42:20;;;;;;;699.67;152.32;;;;;;;;;;10513057;28;20230;-75
2024/01/13 22:47:20;;;;;;;690.83;78.53;;;;;;;;;;10530431;28;20038;-75
2024/01/13 22:52:21;;;;;;;574.55;59.50;;;;;;;;;;10530922;28;20994;-75
2024/01/13 22:57:21;;;;;;;244.95;30.70;;;;;;;;;;10529977;28;20024;-75
2024/01/13 23:02:21;;;;;;;164.35;22.25;;;;;;;;;;10529460;28;20020;-76
2024/01/13 23:07:22;;;;;;;232.57;27.87;;;;;;;;;;10530930;28;20187;-74
2024/01/13 23:12:22;;;;;;;190.03;178.13;;;;;;;;;;10530833;28;20223;-75
2024/01/13 23:17:22;;;;;;;19.40;9.10;;;;;;;;;;10529758;28;20608;-74
2024/01/13 23:22:22;;;;;;;81.60;77.25;;;;;;;;;;10530500;28;20083;-76
2024/01/13 23:27:23;;;;;;;;;;;;;;;;;;10531073;28;20015;-75
2024/01/13 23:32:23;;;;;;;0.85;0.85;;;;;;;;;;10529716;28;20162;-76
2024/01/13 23:37:24;;;;;;;1.25;1.25;;;;;;;;;;10512390;28;20392;-75
2024/01/13 23:42:24;;;;;;;21.13;20.17;;;;;;;;;;10529448;28;20039;-76
2024/01/13 23:47:24;;;;;;;;;;;;;;;;;;10529191;28;20244;-76
2024/01/13 23:52:24;;;;;;;;;;;;;;;;;;10510937;28;19899;-77
2024/01/13 23:57:25;;;;;;;6.93;3.90;;;;;;;;;;10529084;28;20033;-75
